Time;durP1;ratioP1;P1;durP2;ratioP2;P2;SDS_P1;SDS_P2;PMS_P1;PMS_P2;Temp;Humidity;BMP_temperature;BMP_pressure;BME280_temperature;BME280_humidity;BME280_pressure;Samples;Min_cycle;Max_cycle;Signal;HPM_P1;HPM_P2
2022/07/18 00:01:56;;;;;;;33.03;4.30;;;;;;;16.36;95.91;98691.44;5062249;28;20037;-58
2022/07/18 00:04:22;;;;;;;29.23;3.97;;;;;;;16.29;96.43;98695.31;5062603;28;20046;-59
2022/07/18 00:06:47;;;;;;;36.75;4.72;;;;;;;16.23;95.42;98691.25;5062114;28;20040;-59
2022/07/18 00:09:13;;;;;;;29.27;3.95;;;;;;;16.20;94.91;98696.66;5061845;28;20102;-59
2022/07/18 00:11:38;;;;;;;31.15;4.20;;;;;;;16.14;95.05;98697.00;5061330;28;20416;-59
2022/07/18 00:14:04;;;;;;;29.20;3.90;;;;;;;16.24;92.71;98697.34;5062117;28;20033;-59
2022/07/18 00:16:29;;;;;;;29.42;4.07;;;;;;;16.06;94.05;98693.91;5062061;28;20045;-58
2022/07/18 00:18:57;;;;;;;37.13;4.80;;;;;;;16.16;96.67;98689.88;5061426;28;20611;-58
2022/07/18 00:21:22;;;;;;;36.08;4.55;;;;;;;16.42;94.07;98692.88;5061018;28;20036;-58
2022/07/18 00:23:48;;;;;;;32.28;4.00;;;;;;;16.06;98.89;98697.38;5060850;28;20035;-58
2022/07/18 00:26:13;;;;;;;33.95;4.30;;;;;;;16.35;100.00;98695.84;5061788;28;20467;-60
2022/07/18 00:28:38;;;;;;;34.92;4.47;;;;;;;16.02;100.00;98701.09;5061932;28;20119;-58
2022/07/18 00:31:04;;;;;;;32.50;4.20;;;;;;;16.20;100.00;98696.66;5061005;28;20537;-58
2022/07/18 00:33:29;;;;;;;33.13;4.35;;;;;;;16.18;100.00;98688.84;5062141;28;20535;-59
2022/07/18 00:35:55;;;;;;;35.30;4.45;;;;;;;15.60;100.00;98692.69;5063103;28;20029;-60
2022/07/18 00:38:20;;;;;;;32.15;4.40;;;;;;;15.68;100.00;98694.06;5061008;28;20028;-58
2022/07/18 00:40:45;;;;;;;36.53;4.43;;;;;;;15.30;100.00;98707.34;5058583;28;20655;-58
2022/07/18 00:43:14;;;;;;;34.70;4.60;;;;;;;15.17;100.00;98694.81;5060386;28;20029;-59
2022/07/18 00:45:47;;;;;;;33.85;4.47;;;;;;;15.21;100.00;98698.97;5061148;28;20036;-59
2022/07/18 00:48:13;;;;;;;36.08;4.43;;;;;;;15.61;100.00;98694.38;5062310;28;20079;-58
2022/07/18 00:50:39;;;;;;;35.28;4.55;;;;;;;15.58;100.00;98698.94;5061119;28;20469;-59
2022/07/18 00:53:05;;;;;;;30.45;4.03;;;;;;;15.31;100.00;98695.88;5061838;28;20103;-58
2022/07/18 00:55:31;;;;;;;27.23;3.90;;;;;;;15.75;100.00;98700.72;5061457;28;20040;-59
2022/07/18 00:57:58;;;;;;;27.90;3.67;;;;;;;15.06;100.00;98712.03;5061138;28;20040;-59
2022/07/18 01:03:07;;;;;;;29.98;4.22;;;;;;;14.98;100.00;98715.00;5062325;28;20094;-58
2022/07/18 01:05:33;;;;;;;40.05;5.15;;;;;;;15.21;100.00;98712.09;5061711;28;20036;-61
2022/07/18 01:07:58;;;;;;;25.73;3.80;;;;;;;15.20;100.00;98713.06;5062053;28;20437;-59
2022/07/18 01:10:24;;;;;;;30.70;4.20;;;;;;;15.27;100.00;98715.38;5058679;28;20086;-58
2022/07/18 01:12:49;;;;;;;32.40;4.30;;;;;;;14.97;100.00;98708.06;5060764;28;20249;-58
2022/07/18 01:15:14;;;;;;;28.48;3.95;;;;;;;14.59;100.00;98718.56;5060759;28;20562;-58
2022/07/18 01:17:40;;;;;;;36.13;4.68;;;;;;;14.86;100.00;98720.84;5060649;28;20082;-59
2022/07/18 01:20:06;;;;;;;48.20;5.93;;;;;;;14.84;100.00;98719.13;5060323;28;20107;-58
2022/07/18 01:22:32;;;;;;;27.48;3.88;;;;;;;14.82;100.00;98715.72;5058465;28;20101;-58
2022/07/18 01:24:57;;;;;;;26.30;3.80;;;;;;;14.50;100.00;98706.69;5061143;28;20021;-58
2022/07/18 01:27:23;;;;;;;38.42;4.95;;;;;;;14.32;100.00;98705.75;5060287;28;20037;-58
2022/07/18 01:29:51;;;;;;;38.13;5.05;;;;;;;14.25;100.00;98705.16;5061076;28;20116;-60
2022/07/18 01:32:16;;;;;;;37.25;4.68;;;;;;;14.36;100.00;98709.94;5060288;28;20045;-58
2022/07/18 01:34:44;;;;;;;34.60;4.43;;;;;;;14.21;100.00;98708.00;5061151;28;20046;-59
2022/07/18 01:37:10;;;;;;;38.95;4.85;;;;;;;13.87;100.00;98710.31;5048759;28;20355;-58
2022/07/18 01:39:35;;;;;;;35.67;4.80;;;;;;;13.80;100.00;98713.25;5060424;28;20487;-58
2022/07/18 01:42:04;;;;;;;39.20;4.78;;;;;;;13.62;100.00;98709.66;5059452;28;20029;-58
2022/07/18 01:44:31;;;;;;;29.95;4.00;;;;;;;13.63;100.00;98717.47;5061243;28;20025;-58
2022/07/18 01:46:56;;;;;;;32.92;4.53;;;;;;;13.39;100.00;98718.47;5059003;28;20044;-58
2022/07/18 01:49:22;;;;;;;40.20;4.80;;;;;;;13.45;100.00;98723.47;5060416;28;20576;-58
2022/07/18 01:51:52;;;;;;;34.08;4.45;;;;;;;13.48;100.00;98718.09;5059347;28;20040;-58
2022/07/18 01:54:22;;;;;;;31.20;4.57;;;;;;;13.40;100.00;98714.94;5061168;28;20414;-58
2022/07/18 01:56:47;;;;;;;39.85;4.85;;;;;;;13.51;100.00;98720.59;5059718;28;20036;-59
2022/07/18 01:59:12;;;;;;;35.28;4.72;;;;;;;13.54;100.00;98717.84;5059788;28;20031;-59
2022/07/18 02:01:38;;;;;;;27.30;4.07;;;;;;;13.59;100.00;98726.38;5058687;28;20652;-58
2022/07/18 02:04:04;;;;;;;32.42;4.32;;;;;;;13.51;100.00;98731.09;5060923;28;20025;-58
2022/07/18 02:06:29;;;;;;;28.85;3.90;;;;;;;13.52;100.00;98727.53;5059836;28;20605;-59
2022/07/18 02:08:54;;;;;;;32.50;4.28;;;;;;;13.63;100.00;98725.31;5060004;28;20028;-58
2022/07/18 02:11:20;;;;;;;32.22;4.28;;;;;;;13.82;100.00;98721.91;5058659;28;20816;-60
2022/07/18 02:13:45;;;;;;;37.40;4.63;;;;;;;14.15;100.00;98724.00;5060552;28;20038;-58
2022/07/18 02:16:10;;;;;;;31.15;4.30;;;;;;;14.30;100.00;98727.72;5060241;28;20115;-59
2022/07/18 02:18:36;;;;;;;30.65;4.13;;;;;;;14.06;100.00;98730.50;5059788;28;20024;-60
2022/07/18 02:21:02;;;;;;;35.92;4.72;;;;;;;13.75;100.00;98730.97;5040901;28;20036;-59
2022/07/18 02:23:28;;;;;;;35.17;5.00;;;;;;;13.99;100.00;98734.34;5060982;28;20366;-58
2022/07/18 02:25:54;;;;;;;31.85;4.65;;;;;;;13.69;100.00;98735.56;5059304;28;21016;-58
2022/07/18 02:28:20;;;;;;;31.58;4.38;;;;;;;13.58;100.00;98732.56;5059249;28;20083;-58
2022/07/18 02:30:47;;;;;;;27.60;3.83;;;;;;;13.87;100.00;98726.03;5058604;28;20052;-58
2022/07/18 02:33:13;;;;;;;35.42;4.65;;;;;;;13.89;100.00;98728.59;5060541;28;20561;-60
2022/07/18 02:35:39;;;;;;;34.58;4.55;;;;;;;13.60;100.00;98732.47;5058810;28;20033;-59
2022/07/18 02:38:04;;;;;;;33.10;4.30;;;;;;;13.75;100.00;98730.97;5059556;28;20842;-58
2022/07/18 02:40:30;;;;;;;40.13;4.95;;;;;;;13.59;100.00;98730.78;5058913;28;20975;-58
2022/07/18 02:42:55;;;;;;;31.33;4.25;;;;;;;13.60;100.00;98732.47;5060855;28;20032;-60
2022/07/18 02:45:20;;;;;;;33.33;4.57;;;;;;;13.67;100.00;98734.78;5059723;28;20064;-58
2022/07/18 02:47:46;;;;;;;39.60;4.70;;;;;;;13.66;100.00;98738.31;5059529;28;20048;-59
2022/07/18 02:50:12;;;;;;;48.22;5.55;;;;;;;13.40;100.00;98735.91;5058871;28;20407;-58
2022/07/18 02:52:40;;;;;;;30.13;4.18;;;;;;;13.16;100.00;98738.59;5058786;28;20051;-60
2022/07/18 02:55:06;;;;;;;39.08;5.05;;;;;;;13.60;100.00;98737.69;5058711;28;20032;-60
2022/07/18 02:57:32;;;;;;;33.90;4.70;;;;;;;13.18;100.00;98733.25;5059517;28;20020;-59
2022/07/18 02:59:57;;;;;;;43.30;5.43;;;;;;;13.14;100.00;98732.56;5058181;28;20389;-58
2022/07/18 03:02:23;;;;;;;26.17;3.95;;;;;;;13.28;100.00;98735.44;5058711;28;20127;-60
2022/07/18 03:04:48;;;;;;;24.90;4.00;;;;;;;13.24;100.00;98736.50;5059801;28;20020;-59
2022/07/18 03:07:13;;;;;;;30.60;4.57;;;;;;;13.50;100.00;98742.47;5058460;28;20508;-59
2022/07/18 03:09:39;;;;;;;32.85;4.75;;;;;;;13.03;100.00;98732.09;5058608;28;20130;-60
2022/07/18 03:12:04;;;;;;;29.33;4.38;;;;;;;12.89;100.00;98730.88;5057513;28;20056;-58
2022/07/18 03:14:29;;;;;;;24.98;3.97;;;;;;;12.84;100.00;98732.81;5058958;28;20020;-58
2022/07/18 03:16:55;;;;;;;33.05;4.43;;;;;;;13.07;100.00;98731.09;5055096;28;20135;-58
2022/07/18 03:19:20;;;;;;;27.58;4.10;;;;;;;13.05;100.00;98730.28;5058440;28;20190;-58
2022/07/18 03:21:46;;;;;;;29.30;4.05;;;;;;;13.58;100.00;98740.41;5057730;28;20043;-58
2022/07/18 03:24:13;;;;;;;33.67;4.72;;;;;;;12.96;100.00;98734.13;5058312;28;20492;-60
2022/07/18 03:26:39;;;;;;;30.08;4.20;;;;;;;13.16;100.00;98742.94;5057527;28;20024;-61
2022/07/18 03:29:04;;;;;;;28.73;4.20;;;;;;;13.20;100.00;98734.91;5058515;28;20028;-59
2022/07/18 03:31:30;;;;;;;25.45;4.20;;;;;;;13.20;100.00;98734.91;5058286;28;20136;-59
2022/07/18 03:33:55;;;;;;;31.10;4.32;;;;;;;13.55;100.00;98729.19;5058264;28;20024;-59
2022/07/18 03:36:21;;;;;;;25.25;4.10;;;;;;;13.18;100.00;98730.63;5058256;28;20086;-58
2022/07/18 03:38:46;;;;;;;26.58;4.20;;;;;;;13.05;100.00;98730.28;5057938;28;20025;-59
2022/07/18 03:41:12;;;;;;;32.53;4.57;;;;;;;13.22;100.00;98724.38;5057379;28;20032;-59
2022/07/18 03:43:39;;;;;;;23.83;3.58;;;;;;;13.22;100.00;98725.22;5058929;28;20288;-59
2022/07/18 03:46:05;;;;;;;28.05;4.10;;;;;;;13.25;100.00;98732.97;5058339;28;20040;-59
2022/07/18 03:48:30;;;;;;;32.78;4.43;;;;;;;13.16;100.00;98733.34;5058563;28;20034;-60
2022/07/18 03:50:55;;;;;;;20.95;3.50;;;;;;;13.08;100.00;98732.78;5057949;28;20040;-59
2022/07/18 03:53:21;;;;;;;33.28;4.72;;;;;;;12.96;100.00;98731.50;5058445;28;20456;-61
2022/07/18 03:55:46;;;;;;;29.60;4.40;;;;;;;13.21;100.00;98730.53;5059251;28;20037;-60
2022/07/18 03:58:12;;;;;;;25.92;4.30;;;;;;;13.60;100.00;98728.09;5058944;28;20032;-61
2022/07/18 04:00:37;;;;;;;24.50;3.80;;;;;;;13.54;100.00;98737.97;5058445;28;20123;-59
2022/07/18 04:03:03;;;;;;;31.75;3.97;;;;;;;13.50;100.00;98739.84;5058758;28;20103;-59
2022/07/18 04:05:28;;;;;;;25.88;4.22;;;;;;;13.27;100.00;98731.16;5059009;28;20037;-61
2022/07/18 04:07:54;;;;;;;29.45;4.20;;;;;;;13.78;100.00;98725.59;5057972;28;20032;-60
2022/07/18 04:10:19;;;;;;;30.55;4.35;;;;;;;13.64;100.00;98734.91;5058443;28;20031;-60
2022/07/18 04:12:50;;;;;;;28.00;4.65;;;;;;;13.80;100.00;98729.88;5058019;28;20055;-60
2022/07/18 04:15:16;;;;;;;24.33;3.78;;;;;;;14.04;100.00;98733.22;5058213;28;20021;-59
2022/07/18 04:17:41;;;;;;;31.27;4.78;;;;;;;14.37;100.00;98724.78;5058100;28;20024;-59
2022/07/18 04:20:08;;;;;;;34.53;5.00;;;;;;;14.50;100.00;98726.81;5057284;28;20052;-59
2022/07/18 04:22:51;;;;;;;25.70;4.47;;;;;;;14.34;100.00;98732.78;5058072;28;20490;-59
2022/07/18 04:25:17;;;;;;;25.67;4.10;;;;;;;14.31;100.00;98721.56;5059084;28;20509;-59
2022/07/18 04:27:44;;;;;;;27.30;4.25;;;;;;;14.67;100.00;98726.06;5057860;28;20040;-61
2022/07/18 04:30:10;;;;;;;37.13;5.07;;;;;;;15.10;100.00;98721.44;5057647;28;20016;-58
2022/07/18 04:32:37;;;;;;;25.38;3.72;;;;;;;15.66;100.00;98719.56;5059107;28;20797;-59
2022/07/18 04:35:03;;;;;;;34.92;5.18;;;;;;;15.11;100.00;98726.63;5057791;28;20043;-59
2022/07/18 04:37:31;;;;;;;26.98;4.35;;;;;;;15.02;100.00;98721.81;5057829;28;20040;-59
2022/07/18 04:39:57;;;;;;;31.75;5.22;;;;;;;15.46;100.00;98725.81;5057438;28;20969;-59
2022/07/18 04:42:22;;;;;;;19.75;3.40;;;;;;;15.63;100.00;98725.00;5053660;28;20044;-59
2022/07/18 04:44:48;;;;;;;27.60;4.15;;;;;;;16.21;100.00;98724.69;5058240;28;20086;-60
2022/07/18 04:47:13;;;;;;;29.35;4.65;;;;;;;15.83;100.00;98724.88;5058912;28;20123;-59
2022/07/18 04:49:38;;;;;;;24.08;4.30;;;;;;;16.05;100.00;98729.06;5060344;28;20052;-59
2022/07/18 04:52:04;;;;;;;22.73;3.85;;;;;;;16.14;100.00;98729.41;5060221;28;20044;-59
2022/07/18 04:54:29;;;;;;;23.00;3.80;;;;;;;15.83;100.00;98719.63;5062117;28;20900;-59
2022/07/18 04:56:55;;;;;;;24.33;4.07;;;;;;;16.28;100.00;98720.78;5061168;28;20128;-59
2022/07/18 04:59:20;;;;;;;27.88;4.32;;;;;;;16.40;100.00;98721.09;5061263;28;20056;-60
2022/07/18 05:01:45;;;;;;;23.88;4.10;;;;;;;16.92;100.00;98721.75;5060371;28;20507;-60
2022/07/18 05:04:11;;;;;;;30.60;4.78;;;;;;;16.89;100.00;98721.94;5061095;28;20355;-60
2022/07/18 05:06:36;;;;;;;19.85;3.80;;;;;;;17.10;100.00;98719.88;5060975;28;20071;-60
2022/07/18 05:09:01;;;;;;;24.38;4.28;;;;;;;17.27;100.00;98725.97;5061633;28;20135;-59
2022/07/18 05:11:27;;;;;;;24.35;4.10;;;;;;;17.97;93.89;98733.41;5060139;28;20041;-60
2022/07/18 05:13:52;;;;;;;24.42;3.95;;;;;;;20.41;77.95;98732.72;5062973;28;20024;-60
2022/07/18 05:16:18;;;;;;;21.67;4.03;;;;;;;23.00;61.68;98734.69;5061584;28;20036;-59
2022/07/18 05:18:43;;;;;;;26.38;4.15;;;;;;;23.00;55.40;98734.69;5060186;28;20034;-60
2022/07/18 05:21:08;;;;;;;17.27;3.25;;;;;;;22.41;53.21;98744.63;5059619;28;20542;-59
2022/07/18 05:23:34;;;;;;;20.92;3.72;;;;;;;21.23;56.28;98733.09;5061884;28;20474;-60
2022/07/18 05:25:59;;;;;;;17.75;3.58;;;;;;;21.04;57.88;98740.69;5061065;28;20044;-59
2022/07/18 05:28:25;;;;;;;20.33;3.63;;;;;;;21.34;56.35;98738.44;5060903;28;20522;-59
2022/07/18 05:30:50;;;;;;;24.00;4.43;;;;;;;21.29;56.58;98743.25;5056455;28;20044;-59
2022/07/18 05:33:16;;;;;;;18.77;3.88;;;;;;;20.65;56.02;98730.16;5059297;28;20039;-60
2022/07/18 05:35:41;;;;;;;21.20;3.90;;;;;;;20.72;56.81;98736.72;5060179;28;20028;-60
2022/07/18 05:38:06;;;;;;;17.80;3.45;;;;;;;20.67;55.16;98733.56;5059973;28;20549;-59
2022/07/18 05:40:32;;;;;;;18.95;3.85;;;;;;;20.88;54.42;98732.97;5060943;28;20059;-59
2022/07/18 05:42:57;;;;;;;19.10;3.90;;;;;;;22.02;52.26;98732.56;5060408;28;20040;-59
2022/07/18 05:45:24;;;;;;;18.60;3.50;;;;;;;23.08;47.98;98725.13;5061051;28;20051;-61
2022/07/18 05:47:49;;;;;;;19.80;3.72;;;;;;;24.77;44.31;98726.03;5060220;28;20028;-59
2022/07/18 05:50:14;;;;;;;21.20;4.05;;;;;;;25.69;41.33;98716.09;5056073;28;20025;-60
2022/07/18 05:52:40;;;;;;;14.82;3.20;;;;;;;28.51;38.76;98724.28;5060337;28;20024;-60
2022/07/18 05:55:06;;;;;;;19.95;3.72;;;;;;;27.53;37.03;98727.06;5059886;28;20038;-60
2022/07/18 05:57:32;;;;;;;22.60;4.25;;;;;;;28.11;36.42;98725.72;5057901;28;20390;-60
2022/07/18 05:59:57;;;;;;;19.67;4.13;;;;;;;31.61;32.11;98722.56;5055953;28;20021;-62
2022/07/18 06:02:22;;;;;;;13.07;3.10;;;;;;;30.97;32.25;98720.91;5053979;28;20067;-60
2022/07/18 06:04:48;;;;;;;14.93;3.22;;;;;;;32.97;29.44;98723.38;5057408;28;20098;-59
2022/07/18 06:07:13;;;;;;;14.35;3.25;;;;;;;30.32;30.89;98732.69;5058434;28;20567;-60
2022/07/18 06:09:38;;;;;;;10.38;2.83;;;;;;;32.77;28.95;98726.69;5059827;28;20962;-60
2022/07/18 06:12:05;;;;;;;12.10;3.10;;;;;;;31.30;29.63;98724.28;5058633;28;20036;-63
2022/07/18 06:14:31;;;;;;;14.90;3.47;;;;;;;32.94;27.85;98721.91;5058702;28;20036;-60
2022/07/18 06:16:57;;;;;;;13.48;3.60;;;;;;;34.22;27.35;98722.16;5055291;28;20040;-60
2022/07/18 06:19:23;;;;;;;13.00;2.95;;;;;;;35.02;26.27;98722.59;5057965;28;20552;-62
2022/07/18 06:21:49;;;;;;;9.93;2.70;;;;;;;34.89;26.04;98722.56;5057920;28;20036;-62
2022/07/18 06:24:14;;;;;;;8.98;2.80;;;;;;;34.12;26.51;98721.66;5059542;28;20118;-60
2022/07/18 06:26:39;;;;;;;7.75;2.60;;;;;;;34.96;25.47;98715.31;5058503;28;20028;-60
2022/07/18 06:29:05;;;;;;;9.85;2.50;;;;;;;35.61;24.92;98720.28;5058872;28;20032;-61
2022/07/18 06:31:30;;;;;;;7.85;2.50;;;;;;;35.41;26.07;98721.06;5057342;28;20646;-60
2022/07/18 06:33:56;;;;;;;7.28;2.45;;;;;;;36.00;24.66;98718.63;5059279;28;20028;-60
2022/07/18 06:36:23;;;;;;;7.10;2.22;;;;;;;35.05;25.61;98714.06;5059098;28;20039;-60
2022/07/18 06:38:50;;;;;;;6.25;2.25;;;;;;;35.43;24.60;98718.97;5059911;28;20032;-60
2022/07/18 06:41:15;;;;;;;4.72;1.98;;;;;;;36.31;23.72;98714.44;5058264;28;20048;-62
2022/07/18 06:43:42;;;;;;;7.97;2.55;;;;;;;37.45;22.76;98714.84;5059699;28;20067;-62
2022/07/18 06:46:07;;;;;;;6.70;2.65;;;;;;;35.65;24.01;98710.66;5059206;28;20052;-60
2022/07/18 06:48:34;;;;;;;5.65;2.20;;;;;;;36.51;23.58;98709.81;5059199;28;20452;-61
2022/07/18 06:51:01;;;;;;;8.10;2.53;;;;;;;38.75;21.51;98703.22;5058800;28;20173;-60
2022/07/18 06:53:26;;;;;;;9.32;2.55;;;;;;;35.94;23.47;98703.19;5059452;28;20177;-61
2022/07/18 06:55:51;;;;;;;6.75;2.35;;;;;;;36.02;24.35;98702.97;5058753;28;20056;-61
2022/07/18 06:58:17;;;;;;;6.43;2.20;;;;;;;35.86;24.54;98702.34;5058876;28;20028;-60
2022/07/18 07:00:42;;;;;;;7.15;2.60;;;;;;;38.10;22.68;98696.34;5060046;28;20521;-60
2022/07/18 07:03:07;;;;;;;5.88;2.20;;;;;;;36.52;23.12;98697.88;5059900;28;20375;-60
2022/07/18 07:05:33;;;;;;;8.30;2.42;;;;;;;37.11;23.03;98697.84;5057941;28;20424;-60
2022/07/18 07:07:58;;;;;;;7.70;2.40;;;;;;;37.02;23.69;98692.69;5057507;28;20593;-60
2022/07/18 07:10:24;;;;;;;7.45;2.35;;;;;;;36.80;23.57;98692.16;5057776;28;20078;-61
2022/07/18 07:12:50;;;;;;;9.25;2.45;;;;;;;37.86;23.25;98695.28;5059480;28;20024;-61
2022/07/18 07:15:19;;;;;;;5.55;2.30;;;;;;;38.14;22.76;98689.41;5058502;28;20035;-60
2022/07/18 07:17:44;;;;;;;5.80;2.53;;;;;;;38.27;22.93;98695.75;5058709;28;20035;-61
2022/07/18 07:20:11;;;;;;;8.30;2.60;;;;;;;35.90;24.28;98695.47;5057527;28;20020;-60
2022/07/18 07:22:43;;;;;;;8.98;2.50;;;;;;;36.53;25.00;98691.41;5059266;28;20676;-60
2022/07/18 07:25:09;;;;;;;8.48;2.30;;;;;;;33.97;26.01;98692.81;5058152;28;20074;-60
2022/07/18 07:27:35;;;;;;;5.95;2.40;;;;;;;33.20;27.06;98686.25;5057930;28;20028;-60
2022/07/18 07:30:00;;;;;;;8.18;2.90;;;;;;;36.62;24.71;98684.69;5057041;28;20027;-60
2022/07/18 07:32:25;;;;;;;5.45;2.30;;;;;;;37.66;23.59;98684.56;5058545;28;20047;-60
2022/07/18 07:34:51;;;;;;;6.65;2.22;;;;;;;37.54;24.08;98684.44;5058694;28;20450;-60
2022/07/18 07:37:16;;;;;;;9.63;2.90;;;;;;;36.65;24.44;98681.53;5057639;28;20032;-60
2022/07/18 07:39:41;;;;;;;9.45;2.92;;;;;;;36.41;23.47;98687.66;5058296;28;20145;-60
2022/07/18 07:42:07;;;;;;;8.55;2.50;;;;;;;38.21;22.95;98674.88;5057274;28;20040;-61
2022/07/18 07:44:32;;;;;;;9.77;2.92;;;;;;;37.89;22.28;98685.84;5058830;28;20039;-60
2022/07/18 07:46:59;;;;;;;13.50;2.78;;;;;;;36.94;23.03;98676.59;5058608;28;20067;-60
2022/07/18 07:49:25;;;;;;;7.93;2.60;;;;;;;37.76;22.97;98678.63;5058108;28;20169;-61
2022/07/18 07:51:50;;;;;;;9.85;2.60;;;;;;;37.89;22.29;98683.13;5058060;28;20048;-62
2022/07/18 07:54:16;;;;;;;7.32;2.35;;;;;;;36.90;22.95;98680.81;5058626;28;20020;-60
2022/07/18 07:56:41;;;;;;;7.45;2.63;;;;;;;36.60;23.38;98684.06;5057741;28;20040;-60
2022/07/18 07:59:06;;;;;;;6.32;2.35;;;;;;;37.46;24.00;98683.84;5057590;28;20072;-62
2022/07/18 08:01:32;;;;;;;7.68;2.75;;;;;;;38.19;23.58;98673.19;5057931;28;20270;-60
2022/07/18 08:03:58;;;;;;;7.97;2.55;;;;;;;37.97;23.12;98680.94;5057096;28;20467;-61
2022/07/18 08:06:23;;;;;;;7.82;2.67;;;;;;;38.11;22.36;98676.25;5057407;28;20180;-63
2022/07/18 08:08:49;;;;;;;10.93;2.83;;;;;;;35.65;25.05;98678.94;5057845;28;21018;-61
2022/07/18 08:11:14;;;;;;;9.82;2.72;;;;;;;35.76;24.21;98690.25;5057076;28;20040;-62
2022/07/18 08:13:40;;;;;;;11.43;2.92;;;;;;;39.98;21.03;98687.41;5057810;28;20157;-60
2022/07/18 08:16:05;;;;;;;8.57;2.67;;;;;;;38.10;22.69;98680.00;5058574;28;20449;-61
2022/07/18 08:18:31;;;;;;;8.30;2.70;;;;;;;37.16;22.60;98679.88;5057827;28;20167;-60
2022/07/18 08:20:56;;;;;;;6.47;2.50;;;;;;;38.29;22.44;98674.56;5061143;28;20446;-60
2022/07/18 08:23:21;;;;;;;9.57;3.00;;;;;;;39.01;22.57;98679.44;5061985;28;20028;-62
2022/07/18 08:25:47;;;;;;;7.32;2.60;;;;;;;39.30;22.16;98677.75;5061694;28;20282;-61
2022/07/18 08:28:13;;;;;;;10.30;2.65;;;;;;;38.93;22.50;98678.66;5061417;28;20032;-62
2022/07/18 08:30:39;;;;;;;8.98;3.10;;;;;;;37.42;22.98;98678.88;5060532;28;20071;-60
2022/07/18 08:33:05;;;;;;;6.90;2.63;;;;;;;38.79;20.30;98668.16;5062040;28;20700;-61
2022/07/18 08:35:32;;;;;;;7.40;2.40;;;;;;;38.17;20.37;98663.59;5061412;28;20043;-61
2022/07/18 08:37:58;;;;;;;10.45;2.50;;;;;;;39.62;19.72;98664.66;5061749;28;20110;-60
2022/07/18 08:40:24;;;;;;;9.43;2.55;;;;;;;39.91;20.41;98670.31;5060408;28;20024;-61
2022/07/18 08:42:52;;;;;;;7.28;2.35;;;;;;;38.23;20.56;98662.69;5061334;28;20024;-63
2022/07/18 08:45:21;;;;;;;5.80;2.20;;;;;;;38.28;17.94;98665.56;5061159;28;20558;-60
2022/07/18 08:47:47;;;;;;;7.60;2.53;;;;;;;38.73;19.80;98653.56;5061534;28;20028;-61
2022/07/18 08:50:12;;;;;;;10.77;2.97;;;;;;;42.45;16.46;98657.19;5059888;28;20029;-60
2022/07/18 08:52:39;;;;;;;9.20;2.50;;;;;;;37.76;19.21;98663.13;5050183;28;20032;-60
2022/07/18 08:55:06;;;;;;;9.25;2.80;;;;;;;36.32;22.21;98662.63;5060692;28;20020;-62
2022/07/18 08:57:32;;;;;;;9.25;2.60;;;;;;;39.62;19.61;98667.38;5060810;28;20685;-61
2022/07/18 08:59:57;;;;;;;6.80;2.60;;;;;;;41.38;18.94;98659.94;5060561;28;20874;-61
2022/07/18 09:02:27;;;;;;;9.10;2.60;;;;;;;38.88;18.43;98664.88;5060566;28;20541;-60
2022/07/18 09:04:53;;;;;;;11.50;2.80;;;;;;;38.30;20.10;98659.91;5061460;28;20020;-61
2022/07/18 09:07:37;;;;;;;12.73;3.20;;;;;;;39.93;19.24;98661.88;5060951;28;20029;-60
2022/07/18 09:10:05;;;;;;;15.30;3.53;;;;;;;38.85;18.92;98665.31;5060898;28;20624;-61
2022/07/18 09:12:31;;;;;;;7.85;2.40;;;;;;;39.79;17.98;98662.06;5060865;28;20089;-59
2022/07/18 09:15:03;;;;;;;7.65;2.50;;;;;;;40.57;18.74;98645.53;5061774;28;20104;-61
2022/07/18 09:17:29;;;;;;;10.90;2.95;;;;;;;39.93;16.88;98649.03;5060711;28;20167;-60
2022/07/18 09:20:00;;;;;;;9.60;2.70;;;;;;;38.02;19.51;98650.31;5061590;28;20714;-60
2022/07/18 09:22:29;;;;;;;12.20;3.03;;;;;;;39.46;17.62;98647.06;5060133;28;20039;-59
2022/07/18 09:24:56;;;;;;;9.70;2.40;;;;;;;39.03;17.67;98647.31;5061531;28;20028;-61
2022/07/18 09:27:30;;;;;;;11.20;3.13;;;;;;;39.65;17.89;98642.34;5060401;28;20029;-61
2022/07/18 09:30:08;;;;;;;9.93;2.65;;;;;;;37.86;19.19;98640.00;5061536;28;20037;-62
2022/07/18 09:32:39;;;;;;;14.80;3.33;;;;;;;39.77;17.08;98645.09;5059870;28;20040;-60
2022/07/18 09:35:05;;;;;;;;;;;;;;;37.34;18.62;98632.88;5060825;28;20032;-60
2022/07/18 09:37:31;;;;;;;9.82;2.55;;;;;;;36.52;19.54;98646.25;5061316;28;20003;-60
2022/07/18 09:40:17;;;;;;;12.15;3.05;;;;;;;39.09;18.55;98644.47;5060533;28;20052;-60
2022/07/18 09:42:43;;;;;;;9.40;2.88;;;;;;;36.79;18.95;98640.75;5059923;28;20478;-60
2022/07/18 09:45:09;;;;;;;10.90;2.85;;;;;;;40.63;17.48;98641.81;5060938;28;20509;-63
2022/07/18 09:47:55;;;;;;;10.23;2.78;;;;;;;38.73;17.97;98645.38;5060110;28;20051;-60
2022/07/18 09:50:28;;;;;;;16.17;3.33;;;;;;;38.03;18.34;98635.66;5058624;28;20028;-61
2022/07/18 09:53:13;;;;;;;12.20;3.10;;;;;;;37.38;17.29;98636.81;5059928;28;20020;-60
2022/07/18 09:55:47;;;;;;;10.90;2.95;;;;;;;36.89;19.35;98630.25;5066961;28;20043;-62
2022/07/18 09:58:19;;;;;;;10.20;2.70;;;;;;;36.58;20.27;98629.09;5060334;28;20082;-60
2022/07/18 10:00:45;;;;;;;8.88;2.63;;;;;;;35.74;20.03;98628.03;5059540;28;20039;-60
2022/07/18 10:03:11;;;;;;;11.35;2.42;;;;;;;36.90;19.62;98620.19;5060673;28;20123;-60
2022/07/18 10:05:38;;;;;;;10.05;2.72;;;;;;;37.72;18.92;98629.25;5059810;28;20109;-62
2022/07/18 10:08:09;;;;;;;11.40;2.83;;;;;;;38.13;18.50;98624.28;5059366;28;20031;-59
2022/07/18 10:10:36;;;;;;;10.00;2.78;;;;;;;37.54;18.04;98621.00;5058945;28;20094;-61
2022/07/18 10:13:03;;;;;;;13.98;3.22;;;;;;;37.42;17.96;98616.31;5060624;28;20063;-60
2022/07/18 10:15:32;;;;;;;10.57;2.63;;;;;;;39.09;17.33;98621.81;5059426;28;20486;-60
2022/07/18 10:17:58;;;;;;;11.23;2.88;;;;;;;36.95;18.63;98604.88;5059611;28;20032;-61
2022/07/18 10:20:27;;;;;;;9.00;2.42;;;;;;;38.88;17.91;98615.78;5059167;28;20032;-61
2022/07/18 10:22:58;;;;;;;16.42;3.90;;;;;;;38.05;19.30;98611.75;5059374;28;20582;-62
2022/07/18 10:25:23;;;;;;;12.10;2.83;;;;;;;37.47;18.77;98609.34;5059496;28;20116;-60
2022/07/18 10:28:06;;;;;;;10.20;2.65;;;;;;;37.63;18.72;98608.81;5059689;28;20027;-60
2022/07/18 10:30:33;;;;;;;9.82;2.55;;;;;;;35.84;20.55;98606.75;5058276;28;20044;-60
2022/07/18 10:32:59;;;;;;;9.70;2.40;;;;;;;37.11;19.45;98608.13;5060202;28;20058;-62
2022/07/18 10:36:00;;;;;;;11.93;3.00;;;;;;;36.99;19.75;98614.25;5058395;28;20113;-61
2022/07/18 10:38:26;;;;;;;12.02;3.03;;;;;;;35.42;20.30;98613.41;5059788;28;20034;-61
2022/07/18 10:41:08;;;;;;;12.18;2.65;;;;;;;38.47;19.33;98609.19;5058753;28;20041;-60
2022/07/18 10:43:36;;;;;;;10.75;2.83;;;;;;;37.22;20.44;98597.41;5059010;28;20064;-61
2022/07/18 10:46:04;;;;;;;10.65;2.80;;;;;;;37.15;19.49;98598.50;5058630;28;20041;-60
2022/07/18 10:48:54;;;;;;;11.23;2.88;;;;;;;36.12;20.19;98600.19;5058293;28;20254;-60
2022/07/18 10:51:27;;;;;;;13.48;2.78;;;;;;;36.99;20.31;98597.94;5058131;28;20543;-59
2022/07/18 10:54:01;;;;;;;12.63;2.97;;;;;;;37.26;20.45;98605.97;5058932;28;20398;-60
2022/07/18 10:56:30;;;;;;;10.40;2.65;;;;;;;35.93;20.38;98604.63;5058663;28;20043;-61
2022/07/18 10:58:56;;;;;;;12.82;2.85;;;;;;;36.91;20.83;98600.94;5059213;28;20565;-61
2022/07/18 11:01:23;;;;;;;9.43;2.58;;;;;;;37.22;20.39;98602.00;5058455;28;20101;-60
2022/07/18 11:03:49;;;;;;;14.27;3.00;;;;;;;35.29;20.75;98598.81;5058532;28;20032;-61
2022/07/18 11:06:15;;;;;;;11.38;2.88;;;;;;;38.95;18.00;98588.44;5059138;28;20052;-62
2022/07/18 11:08:41;;;;;;;9.82;2.70;;;;;;;37.56;21.04;98586.25;5058265;28;20441;-61
2022/07/18 11:11:09;;;;;;;12.73;2.80;;;;;;;35.46;20.87;98588.38;5057722;28;20506;-60
2022/07/18 11:13:36;;;;;;;12.15;2.97;;;;;;;35.74;20.67;98579.19;5059830;28;20111;-62
2022/07/18 11:16:23;;;;;;;13.20;2.90;;;;;;;35.98;20.81;98587.72;5058785;28;20131;-61
2022/07/18 11:18:50;;;;;;;12.88;2.90;;;;;;;35.47;20.83;98568.31;5058848;28;20024;-60
2022/07/18 11:21:27;;;;;;;12.80;2.83;;;;;;;36.98;20.88;98577.28;5058637;28;20044;-60
2022/07/18 11:24:07;;;;;;;12.93;2.97;;;;;;;37.03;20.55;98571.97;5059600;28;20114;-59
2022/07/18 11:26:33;;;;;;;9.82;2.63;;;;;;;36.59;20.84;98573.69;5058646;28;20048;-60